Time;durP1;ratioP1;P1;durP2;ratioP2;P2;SDS_P1;SDS_P2;PMS_P1;PMS_P2;Temp;Humidity;BMP_temperature;BMP_pressure;BME280_temperature;BME280_humidity;BME280_pressure;Samples;Min_cycle;Max_cycle;Signal;HPM_P1;HPM_P2
2023/11/18 00:02:16;;;;;;;15.32;10.52;;;;;;;9.07;100.00;99393.97;5001398;28;20510;-67
2023/11/18 00:04:42;;;;;;;14.25;10.07;;;;;;;9.68;100.00;99478.75;5005079;28;20029;-67
2023/11/18 00:07:07;;;;;;;13.60;9.32;;;;;;;10.06;100.00;99522.66;5026470;28;20034;-68
2023/11/18 00:09:32;;;;;;;13.55;9.30;;;;;;;10.11;100.00;99535.66;5027415;28;20064;-69
2023/11/18 00:11:58;;;;;;;13.65;9.60;;;;;;;9.63;100.00;99458.06;5025698;28;20115;-67
2023/11/18 00:14:23;;;;;;;15.07;9.63;;;;;;;10.15;100.00;99534.88;5027107;28;20057;-70
2023/11/18 00:16:49;;;;;;;11.20;9.10;;;;;;;10.20;100.00;99536.75;5026726;28;20045;-69
2023/11/18 00:19:14;;;;;;;11.40;9.30;;;;;;;10.19;100.00;99521.22;5027196;28;20121;-68
2023/11/18 00:21:40;;;;;;;12.23;8.77;;;;;;;10.15;100.00;99504.78;5026519;28;20122;-66
2023/11/18 00:24:07;;;;;;;10.98;8.85;;;;;;;10.27;100.00;99526.53;5027266;28;20120;-70
2023/11/18 00:26:33;;;;;;;11.07;8.98;;;;;;;10.06;100.00;99486.53;5029000;28;20156;-68
2023/11/18 00:29:00;;;;;;;11.25;8.55;;;;;;;10.01;100.00;99494.16;5030179;28;20060;-69
2023/11/18 00:31:26;;;;;;;11.65;7.78;;;;;;;9.69;100.00;99434.13;5031000;28;20108;-67
2023/11/18 00:33:52;;;;;;;10.25;7.00;;;;;;;10.16;100.00;99528.91;5030488;28;20037;-67
2023/11/18 00:36:17;;;;;;;11.02;8.10;;;;;;;10.01;100.00;99504.47;5030319;28;20508;-68
2023/11/18 00:38:43;;;;;;;13.25;7.57;;;;;;;10.11;100.00;99521.03;5017595;28;20042;-68
2023/11/18 00:41:08;;;;;;;10.80;7.63;;;;;;;10.12;100.00;99521.91;5013807;28;20587;-68
2023/11/18 00:43:34;;;;;;;8.90;7.03;;;;;;;10.07;100.00;99526.09;5013265;28;20457;-68
2023/11/18 00:45:59;;;;;;;10.07;7.78;;;;;;;9.95;100.00;99516.38;5013537;28;20041;-68
2023/11/18 00:48:25;;;;;;;11.50;7.93;;;;;;;9.86;100.00;99501.56;5013536;28;20474;-68
2023/11/18 00:50:51;;;;;;;9.90;7.35;;;;;;;9.90;100.00;99517.97;5012791;28;20049;-67
2023/11/18 00:53:17;;;;;;;11.68;8.38;;;;;;;9.82;100.00;99503.19;5013469;28;20412;-68
2023/11/18 00:55:42;;;;;;;10.98;7.78;;;;;;;9.72;100.00;99488.34;5045346;28;20021;-68
2023/11/18 00:58:09;;;;;;;9.63;7.82;;;;;;;9.75;100.00;99509.00;5013236;28;20041;-68
2023/11/18 01:00:36;;;;;;;10.88;8.00;;;;;;;9.33;100.00;99445.25;5013340;28;20021;-68
2023/11/18 01:03:02;;;;;;;11.85;8.40;;;;;;;9.77;100.00;99524.50;5012837;28;20033;-68
2023/11/18 01:05:27;;;;;;;13.60;9.25;;;;;;;9.69;100.00;99508.84;5013068;28;20400;-68
2023/11/18 01:07:53;;;;;;;12.27;8.95;;;;;;;9.78;100.00;99534.88;5012846;28;20042;-69
2023/11/18 01:10:19;;;;;;;13.35;9.05;;;;;;;9.24;100.00;99456.19;5013052;28;20025;-68
2023/11/18 01:12:45;;;;;;;11.73;9.45;;;;;;;9.20;100.00;99456.97;5012403;28;20036;-66
2023/11/18 01:15:12;;;;;;;15.27;10.02;;;;;;;9.68;100.00;99536.34;5012915;28;20026;-71
2023/11/18 01:17:38;;;;;;;13.82;10.10;;;;;;;9.59;100.00;99519.78;5012400;28;20475;-68
2023/11/18 01:20:10;;;;;;;13.95;10.32;;;;;;;9.53;100.00;99505.91;5011374;28;20117;-68
2023/11/18 01:22:37;;;;;;;13.70;10.20;;;;;;;9.48;100.00;99493.72;5012888;28;20078;-69
2023/11/18 01:25:04;;;;;;;13.93;9.25;;;;;;;9.27;100.00;99455.41;5013037;28;20136;-68
2023/11/18 01:27:33;;;;;;;15.13;10.65;;;;;;;9.70;100.00;99523.50;5012485;28;20108;-66
2023/11/18 01:29:59;;;;;;;12.95;9.82;;;;;;;9.74;100.00;99511.56;5012903;28;20045;-69
2023/11/18 01:32:25;;;;;;;14.05;9.73;;;;;;;9.67;100.00;99500.22;5012095;28;20034;-69
2023/11/18 01:34:51;;;;;;;14.10;10.20;;;;;;;9.34;100.00;99421.25;5012658;28;20056;-67
2023/11/18 01:37:17;;;;;;;14.00;10.15;;;;;;;9.80;100.00;99484.22;5010338;28;20038;-68
2023/11/18 01:39:42;;;;;;;13.25;9.75;;;;;;;9.74;100.00;99471.19;5012725;28;20044;-68
2023/11/18 01:42:08;;;;;;;13.85;9.52;;;;;;;9.84;100.00;99498.06;5012250;28;20022;-69
2023/11/18 01:44:35;;;;;;;14.27;10.20;;;;;;;9.81;100.00;99516.91;5012609;28;20100;-67
2023/11/18 01:47:05;;;;;;;14.20;10.13;;;;;;;9.65;100.00;99507.91;5012087;28;20025;-68
2023/11/18 01:49:37;;;;;;;18.52;12.25;;;;;;;9.66;100.00;99495.91;5012471;28;20093;-68
2023/11/18 01:52:02;;;;;;;17.65;11.05;;;;;;;9.62;100.00;99494.06;5012153;28;20030;-71
2023/11/18 01:54:29;;;;;;;13.50;10.25;;;;;;;9.77;100.00;99519.34;5012177;28;20110;-74
2023/11/18 01:56:55;;;;;;;16.55;11.07;;;;;;;9.76;100.00;99507.28;5012082;28;20058;-69
2023/11/18 01:59:21;;;;;;;18.75;11.68;;;;;;;9.75;100.00;99506.44;5026229;28;20038;-69
2023/11/18 02:01:49;;;;;;;15.02;10.13;;;;;;;9.68;100.00;99495.13;5011572;28;20112;-68
2023/11/18 02:04:15;;;;;;;15.77;11.57;;;;;;;9.77;100.00;99502.19;5011625;28;20053;-67
2023/11/18 02:06:41;;;;;;;18.42;12.05;;;;;;;9.09;100.00;99391.44;5011922;28;20486;-69
2023/11/18 02:09:07;;;;;;;19.10;12.32;;;;;;;9.65;100.00;99479.56;5011766;28;20041;-70
2023/11/18 02:12:00;;;;;;;14.93;10.52;;;;;;;9.32;100.00;99435.78;4998753;28;20038;-68
2023/11/18 02:14:28;;;;;;;15.77;10.50;;;;;;;9.59;100.00;99484.56;5011833;28;20030;-68
2023/11/18 02:16:57;;;;;;;16.27;10.80;;;;;;;9.48;100.00;99481.75;5011729;28;20469;-68
2023/11/18 02:19:24;;;;;;;13.77;10.57;;;;;;;9.41;100.00;99461.78;5010471;28;20034;-67
2023/11/18 02:21:53;;;;;;;16.00;11.82;;;;;;;9.33;100.00;99433.28;5011818;28;20117;-68
2023/11/18 02:24:30;;;;;;;15.50;10.93;;;;;;;9.36;100.00;99429.91;5011172;28;20105;-68
2023/11/18 02:27:00;;;;;;;14.15;10.07;;;;;;;9.50;100.00;99466.31;5011681;28;20116;-68
2023/11/18 02:29:32;;;;;;;12.75;9.60;;;;;;;9.34;100.00;99428.97;5011664;28;20053;-68
2023/11/18 02:32:05;;;;;;;14.35;10.15;;;;;;;9.45;100.00;99457.59;5011293;28;20033;-67
2023/11/18 02:34:32;;;;;;;13.48;9.65;;;;;;;8.85;100.00;99377.97;5011474;28;20072;-67
2023/11/18 02:37:00;;;;;;;14.48;10.98;;;;;;;9.23;100.00;99470.78;5011262;28;20076;-69
2023/11/18 02:39:43;;;;;;;13.35;10.00;;;;;;;9.25;100.00;99467.41;5011670;28;20022;-68
2023/11/18 02:42:12;;;;;;;13.05;10.07;;;;;;;9.29;100.00;99482.09;5011403;28;20029;-71
2023/11/18 02:44:38;;;;;;;13.23;10.05;;;;;;;9.43;100.00;99511.63;5011670;28;20096;-73
2023/11/18 02:47:07;;;;;;;15.43;10.20;;;;;;;9.27;100.00;99465.72;5011295;28;20470;-68
2023/11/18 02:49:56;;;;;;;14.32;9.88;;;;;;;9.60;100.00;99513.78;5047922;28;20049;-67
2023/11/18 02:52:22;;;;;;;12.98;9.43;;;;;;;9.28;100.00;99436.56;5048243;28;20071;-68
2023/11/18 02:54:48;;;;;;;13.57;9.48;;;;;;;9.11;100.00;99408.69;5048145;28;20028;-68
2023/11/18 02:57:13;;;;;;;21.40;16.25;;;;;;;9.34;100.00;99470.19;5047895;28;20036;-66
2023/11/18 02:59:39;;;;;;;16.30;11.82;;;;;;;9.03;100.00;99410.16;5048214;28;20037;-68
2023/11/18 03:02:06;;;;;;;15.05;11.25;;;;;;;9.55;100.00;99488.75;5047653;28;20551;-68
2023/11/18 03:04:31;;;;;;;15.00;10.98;;;;;;;9.63;100.00;99481.25;5047395;28;20120;-68
2023/11/18 03:06:57;;;;;;;14.52;10.18;;;;;;;9.49;100.00;99437.06;5047680;28;20112;-67
2023/11/18 03:09:27;;;;;;;15.77;10.80;;;;;;;9.80;100.00;99473.91;5011572;28;20080;-66
2023/11/18 03:11:53;;;;;;;14.45;10.30;;;;;;;9.86;100.00;99473.19;5038477;28;20039;-69
2023/11/18 03:14:19;;;;;;;13.70;9.68;;;;;;;9.77;100.00;99444.59;4987967;28;20443;-67
2023/11/18 03:16:44;;;;;;;12.60;8.98;;;;;;;9.60;100.00;99411.59;4988024;28;20596;-68
2023/11/18 03:19:10;;;;;;;13.82;8.98;;;;;;;9.84;100.00;99473.16;4987985;28;20126;-67
2023/11/18 03:21:36;;;;;;;13.85;8.90;;;;;;;9.78;100.00;99464.41;4972720;28;20696;-67
2023/11/18 03:24:01;;;;;;;12.73;8.05;;;;;;;9.63;100.00;99458.06;4969086;28;20042;-71
2023/11/18 03:26:27;;;;;;;10.93;8.73;;;;;;;9.64;100.00;99458.91;4969106;28;20046;-67
2023/11/18 03:28:52;;;;;;;11.70;7.82;;;;;;;9.65;100.00;99468.41;4969138;28;20031;-67
2023/11/18 03:31:19;;;;;;;12.00;7.30;;;;;;;9.67;100.00;99459.88;4968914;28;20121;-68
2023/11/18 03:33:45;;;;;;;10.07;7.80;;;;;;;9.73;100.00;99456.53;4969050;28;20042;-68
2023/11/18 03:36:12;;;;;;;10.98;7.78;;;;;;;9.60;100.00;99419.31;4968766;28;20058;-67
2023/11/18 03:38:38;;;;;;;10.90;7.15;;;;;;;9.79;100.00;99436.06;4968861;28;20046;-68
2023/11/18 03:41:04;;;;;;;11.65;8.50;;;;;;;9.70;100.00;99431.56;4968916;28;20097;-67
2023/11/18 03:43:29;;;;;;;20.83;12.65;;;;;;;9.67;100.00;99451.25;4968655;28;20027;-67
2023/11/18 03:45:56;;;;;;;16.48;11.45;;;;;;;9.78;100.00;99466.97;4952686;28;20039;-68
2023/11/18 03:48:22;;;;;;;15.40;10.50;;;;;;;9.10;100.00;99364.84;4967847;28;20497;-68
2023/11/18 03:50:48;;;;;;;13.27;9.27;;;;;;;9.73;100.00;99481.47;4973233;28;20066;-68
2023/11/18 03:53:13;;;;;;;13.05;9.75;;;;;;;9.78;100.00;99485.00;5009946;28;20112;-67
2023/11/18 03:55:39;;;;;;;11.18;8.35;;;;;;;9.68;100.00;99473.59;5010335;28;20041;-66
2023/11/18 03:58:04;;;;;;;10.00;8.05;;;;;;;9.69;100.00;99468.50;5009933;28;20034;-68
2023/11/18 04:00:31;;;;;;;10.65;8.10;;;;;;;9.69;100.00;99473.66;5009719;28;20026;-68
2023/11/18 04:02:56;;;;;;;10.30;7.15;;;;;;;9.56;100.00;99451.00;5009965;28;20022;-69
2023/11/18 04:05:24;;;;;;;8.65;6.95;;;;;;;9.46;100.00;99446.44;5010321;28;20049;-68
2023/11/18 04:07:49;;;;;;;10.70;6.85;;;;;;;8.61;100.00;99324.19;5010155;28;20029;-68
2023/11/18 04:10:15;;;;;;;9.25;5.22;;;;;;;9.41;100.00;99463.47;5008122;28;20584;-68
2023/11/18 04:12:40;;;;;;;6.25;3.40;;;;;;;8.95;100.00;99439.97;4991194;28;20037;-69
2023/11/18 04:15:07;;;;;;;2.70;2.00;;;;;;;8.29;100.00;99377.25;5009967;28;20033;-71
2023/11/18 04:17:33;;;;;;;3.00;2.10;;;;;;;8.55;100.00;99445.78;5009874;28;20403;-67
2023/11/18 04:19:59;;;;;;;3.50;2.55;;;;;;;8.51;100.00;99482.53;5010267;28;20031;-68
2023/11/18 04:22:24;;;;;;;2.25;1.40;;;;;;;7.86;100.00;99397.44;5008299;28;20026;-67
2023/11/18 04:24:50;;;;;;;1.10;1.00;;;;;;;7.98;100.00;99466.34;5010021;28;20034;-67
2023/11/18 04:27:16;;;;;;;1.20;1.10;;;;;;;8.04;100.00;99466.53;5007421;28;20496;-68
2023/11/18 04:29:42;;;;;;;1.42;1.23;;;;;;;8.28;100.00;99483.53;5010126;28;20479;-68
2023/11/18 04:32:08;;;;;;;1.38;1.17;;;;;;;8.12;100.00;99443.63;5010165;28;20029;-68
2023/11/18 04:34:37;;;;;;;2.80;1.30;;;;;;;8.37;100.00;99473.50;5009869;28;20042;-68
2023/11/18 04:37:06;;;;;;;2.65;1.50;;;;;;;8.28;100.00;99452.66;5010354;28;20050;-68
2023/11/18 04:39:34;;;;;;;1.83;1.37;;;;;;;8.38;100.00;99470.09;5010045;28;20042;-68
2023/11/18 04:42:01;;;;;;;2.55;1.73;;;;;;;8.18;100.00;99439.53;5004038;28;20261;-68
2023/11/18 04:44:26;;;;;;;4.50;2.65;;;;;;;7.25;100.00;99292.88;4998431;28;20532;-67
2023/11/18 04:46:52;;;;;;;5.72;2.60;;;;;;;8.10;100.00;99448.72;5008021;28;20022;-68
2023/11/18 04:49:18;;;;;;;6.15;3.45;;;;;;;8.14;100.00;99463.41;4999272;28;20541;-68
2023/11/18 04:51:44;;;;;;;7.20;3.40;;;;;;;8.17;100.00;99475.47;5007997;28;20396;-67
2023/11/18 04:54:10;;;;;;;4.75;3.13;;;;;;;7.34;100.00;99370.97;5009608;28;20033;-67
2023/11/18 04:56:36;;;;;;;6.03;3.20;;;;;;;7.80;100.00;99458.91;5007640;28;20022;-67
2023/11/18 04:59:05;;;;;;;2.83;2.08;;;;;;;7.53;100.00;99455.50;4999745;28;20084;-73
2023/11/18 05:01:33;;;;;;;2.05;1.75;;;;;;;7.82;100.00;99530.06;5009267;28;20488;-68
2023/11/18 05:03:59;;;;;;;1.83;1.45;;;;;;;7.77;100.00;99545.31;5003066;28;20065;-65
2023/11/18 05:06:25;;;;;;;2.53;1.52;;;;;;;7.51;100.00;99523.91;5002461;28;20065;-67
2023/11/18 05:08:52;;;;;;;2.08;1.40;;;;;;;7.28;100.00;99495.75;5008226;28;20037;-68
2023/11/18 05:11:17;;;;;;;2.00;1.40;;;;;;;7.41;100.00;99519.28;5009283;28;20030;-68
2023/11/18 05:13:42;;;;;;;1.83;1.50;;;;;;;7.13;100.00;99454.16;5011420;28;20040;-68
2023/11/18 05:16:10;;;;;;;3.42;1.40;;;;;;;7.07;100.00;99433.44;5013021;28;20460;-68
2023/11/18 05:18:36;;;;;;;3.17;1.50;;;;;;;7.23;100.00;99504.13;5026214;28;20046;-67
2023/11/18 05:21:05;;;;;;;1.83;1.50;;;;;;;7.06;100.00;99508.66;5000679;28;20512;-68
2023/11/18 05:23:31;;;;;;;2.88;1.67;;;;;;;7.00;100.00;99508.44;5012154;28;20539;-67
2023/11/18 05:25:58;;;;;;;2.22;1.40;;;;;;;6.93;100.00;99508.22;5012756;28;20053;-67
2023/11/18 05:28:24;;;;;;;2.38;1.60;;;;;;;6.77;100.00;99487.97;5010543;28;20046;-66
2023/11/18 05:30:50;;;;;;;1.33;1.02;;;;;;;6.86;100.00;99503.69;5012793;28;20029;-69
2023/11/18 05:33:17;;;;;;;7.03;1.30;;;;;;;6.68;100.00;99485.06;5012725;28;20037;-67
2023/11/18 05:35:50;;;;;;;1.80;1.20;;;;;;;6.80;100.00;99504.34;5012500;28;20176;-66
2023/11/18 05:38:21;;;;;;;1.33;1.17;;;;;;;6.29;100.00;99411.84;5012442;28;20026;-70
2023/11/18 05:40:56;;;;;;;1.98;0.90;;;;;;;6.60;100.00;99480.53;5000497;28;20057;-67
2023/11/18 05:43:29;;;;;;;1.55;1.20;;;;;;;6.50;100.00;99457.91;5012183;28;20455;-67
2023/11/18 05:48:38;;;;;;;1.85;1.15;;;;;;;6.71;100.00;99500.56;5011633;28;20514;-67
2023/11/18 05:51:05;;;;;;;1.95;1.40;;;;;;;6.72;100.00;99500.63;5012546;28;20026;-68
2023/11/18 05:53:31;;;;;;;4.07;1.33;;;;;;;6.78;100.00;99528.22;5012617;28;20037;-67
2023/11/18 05:55:56;;;;;;;1.42;1.10;;;;;;;6.69;100.00;99531.31;5011035;28;20125;-67
2023/11/18 05:58:22;;;;;;;2.40;1.30;;;;;;;6.79;100.00;99535.06;5012001;28;20710;-69
2023/11/18 06:00:47;;;;;;;1.63;1.40;;;;;;;6.84;100.00;99522.41;5007823;28;20038;-69
2023/11/18 06:03:13;;;;;;;1.70;1.33;;;;;;;6.66;100.00;99508.09;4992604;28;20030;-68
2023/11/18 06:05:38;;;;;;;1.33;1.20;;;;;;;6.71;100.00;99526.22;4992927;28;20477;-68
2023/11/18 06:08:04;;;;;;;1.10;1.00;;;;;;;6.64;100.00;99520.88;5008238;28;20717;-68
2023/11/18 06:10:32;;;;;;;1.70;1.30;;;;;;;6.61;100.00;99500.22;5009964;28;20507;-70
2023/11/18 06:12:58;;;;;;;2.25;1.45;;;;;;;5.87;100.00;99382.09;5012061;28;20022;-69
2023/11/18 06:15:24;;;;;;;2.83;1.17;;;;;;;6.56;100.00;99483.78;5010960;28;20597;-69
2023/11/18 06:17:49;;;;;;;1.42;1.20;;;;;;;6.59;100.00;99489.06;5008959;28;20026;-69
2023/11/18 06:20:16;;;;;;;2.47;1.30;;;;;;;6.43;100.00;99468.75;5012121;28;20037;-70
2023/11/18 06:22:42;;;;;;;1.98;1.27;;;;;;;6.64;100.00;99484.06;5006859;28;20116;-69
2023/11/18 06:25:08;;;;;;;4.07;1.33;;;;;;;6.58;100.00;99463.31;5009860;28;20121;-70
2023/11/18 06:27:34;;;;;;;1.83;1.10;;;;;;;6.59;100.00;99480.47;5009978;28;20679;-69
2023/11/18 06:30:00;;;;;;;1.20;1.10;;;;;;;6.57;100.00;99480.41;5011629;28;20117;-68
2023/11/18 06:32:25;;;;;;;1.10;1.00;;;;;;;6.14;100.00;99407.94;5011318;28;20032;-69
2023/11/18 06:34:55;;;;;;;1.35;0.85;;;;;;;6.55;100.00;99479.47;5011371;28;20052;-72
2023/11/18 06:37:20;;;;;;;1.02;0.82;;;;;;;5.90;100.00;99371.94;5011102;28;20108;-68
2023/11/18 06:39:48;;;;;;;2.45;1.10;;;;;;;6.65;100.00;99496.06;5011303;28;20029;-70
2023/11/18 06:42:14;;;;;;;1.65;1.35;;;;;;;6.69;100.00;99497.97;5011358;28;20032;-69
2023/11/18 06:44:40;;;;;;;3.42;1.30;;;;;;;6.62;100.00;99494.28;5010933;28;20030;-71
2023/11/18 06:47:06;;;;;;;2.88;1.30;;;;;;;6.44;100.00;99497.03;5008839;28;20033;-72
2023/11/18 06:49:34;;;;;;;1.23;1.00;;;;;;;6.49;100.00;99489.50;5011880;28;20026;-67
2023/11/18 06:52:03;;;;;;;1.23;1.10;;;;;;;6.25;100.00;99457.00;5011208;28;20034;-69
2023/11/18 06:54:33;;;;;;;1.65;1.48;;;;;;;6.48;100.00;99495.47;5010625;28;20052;-69
2023/11/18 06:56:58;;;;;;;2.40;1.65;;;;;;;6.31;100.00;99490.56;4991550;28;20097;-68
2023/11/18 06:59:24;;;;;;;3.58;3.05;;;;;;;6.35;100.00;99511.19;4992081;28;20034;-69
2023/11/18 07:01:49;;;;;;;1.92;1.50;;;;;;;6.42;100.00;99528.56;4976625;28;20506;-69
2023/11/18 07:04:15;;;;;;;1.55;1.25;;;;;;;6.28;100.00;99525.44;5011508;28;20475;-69
2023/11/18 07:06:41;;;;;;;2.35;1.80;;;;;;;5.80;100.00;99427.06;5011342;28;20026;-70
2023/11/18 07:09:17;;;;;;;5.82;1.63;;;;;;;6.36;100.00;99511.25;5010014;28;20408;-74
2023/11/18 07:11:43;;;;;;;2.65;1.75;;;;;;;6.22;100.00;99505.59;5011403;28;20021;-67
2023/11/18 07:14:10;;;;;;;8.38;5.47;;;;;;;6.19;100.00;99478.97;5011066;28;20481;-71
2023/11/18 07:16:37;;;;;;;7.68;4.07;;;;;;;6.27;100.00;99493.81;5010063;28;20037;-69
2023/11/18 07:19:06;;;;;;;2.53;1.73;;;;;;;6.20;100.00;99502.09;5011332;28;20029;-68
2023/11/18 07:21:33;;;;;;;5.32;3.17;;;;;;;6.11;100.00;99496.63;5011243;28;20030;-69
2023/11/18 07:23:59;;;;;;;4.22;2.80;;;;;;;6.23;100.00;99506.47;5010933;28;20042;-66
2023/11/18 07:26:24;;;;;;;3.83;2.58;;;;;;;6.19;100.00;99494.34;5011014;28;20080;-68
2023/11/18 07:28:51;;;;;;;3.72;3.17;;;;;;;6.28;100.00;99487.91;5011001;28;20034;-68
2023/11/18 07:31:18;;;;;;;5.20;3.22;;;;;;;6.28;100.00;99485.34;5026258;28;20033;-69
2023/11/18 07:33:48;;;;;;;2.78;1.80;;;;;;;6.15;100.00;99483.97;5011102;28;20029;-70
2023/11/18 07:36:19;;;;;;;5.70;3.97;;;;;;;6.09;100.00;99462.38;5010062;28;20060;-73
2023/11/18 07:38:45;;;;;;;8.45;4.30;;;;;;;6.18;100.00;99472.09;5011020;28;20062;-70
2023/11/18 07:41:23;;;;;;;8.23;3.58;;;;;;;6.17;100.00;99460.97;5010814;28;20519;-71
2023/11/18 07:43:55;;;;;;;12.38;5.65;;;;;;;6.10;100.00;99453.88;5010176;28;20485;-68
2023/11/18 07:46:22;;;;;;;5.95;4.38;;;;;;;6.12;100.00;99447.13;5010896;28;20045;-69
2023/11/18 07:48:49;;;;;;;7.35;3.63;;;;;;;6.14;100.00;99448.03;5010737;28;20113;-69
2023/11/18 07:51:14;;;;;;;6.07;3.35;;;;;;;6.10;100.00;99426.53;5010778;28;20475;-69
2023/11/18 07:53:40;;;;;;;5.55;3.83;;;;;;;6.15;100.00;99432.72;5010650;28;20038;-69
2023/11/18 07:56:07;;;;;;;5.25;2.97;;;;;;;6.09;100.00;99452.13;5010731;28;20091;-69
2023/11/18 07:58:37;;;;;;;6.85;3.70;;;;;;;6.17;100.00;99458.41;5024645;28;20061;-71
2023/11/18 08:01:03;;;;;;;5.53;3.22;;;;;;;6.18;100.00;99461.84;5010538;28;20037;-68
2023/11/18 08:03:31;;;;;;;3.67;1.95;;;;;;;6.06;100.00;99458.00;5010460;28;20030;-69
2023/11/18 08:05:57;;;;;;;2.78;1.70;;;;;;;6.14;100.00;99460.84;5010551;28;20029;-69
2023/11/18 08:08:23;;;;;;;4.53;2.65;;;;;;;6.25;100.00;99463.81;5010462;28;20041;-68
2023/11/18 08:10:50;;;;;;;6.07;3.55;;;;;;;6.15;100.00;99463.47;5010626;28;20025;-69
2023/11/18 08:13:16;;;;;;;2.78;2.20;;;;;;;6.13;100.00;99477.03;5025714;28;20050;-68
2023/11/18 08:15:47;;;;;;;3.17;2.15;;;;;;;6.15;100.00;99476.28;5010547;28;20515;-71
2023/11/18 08:18:12;;;;;;;3.67;2.63;;;;;;;5.93;100.00;99431.00;5010482;28;20026;-68
2023/11/18 08:20:38;;;;;;;5.80;3.92;;;;;;;5.69;100.00;99389.94;5010270;28;20104;-67
2023/11/18 08:23:07;;;;;;;6.00;2.28;;;;;;;6.15;100.00;99475.41;5008234;28;20026;-67
2023/11/18 08:25:35;;;;;;;8.13;3.30;;;;;;;6.12;100.00;99473.59;5010864;28;20100;-68
2023/11/18 08:28:02;;;;;;;6.13;3.40;;;;;;;5.66;100.00;99402.63;5010601;28;20345;-73
2023/11/18 08:30:27;;;;;;;5.15;4.22;;;;;;;5.87;100.00;99391.47;5010446;28;20026;-67
2023/11/18 08:32:54;;;;;;;7.97;6.20;;;;;;;6.32;100.00;99466.69;5010250;28;20087;-68
2023/11/18 08:35:21;;;;;;;4.45;3.13;;;;;;;6.33;100.00;99480.38;5010267;28;20053;-68
2023/11/18 08:37:47;;;;;;;2.25;2.05;;;;;;;6.26;100.00;99474.13;5010182;28;20036;-69
2023/11/18 08:40:17;;;;;;;3.05;2.22;;;;;;;6.29;100.00;99458.88;5010065;28;20054;-69
2023/11/18 08:42:49;;;;;;;4.30;2.92;;;;;;;6.48;100.00;99483.50;5007974;28;20037;-74
2023/11/18 08:45:32;;;;;;;3.75;3.03;;;;;;;6.39;100.00;99483.19;5010005;28;20024;-68
2023/11/18 08:48:01;;;;;;;5.70;2.60;;;;;;;6.50;100.00;99516.03;5012790;28;20026;-69
2023/11/18 08:50:28;;;;;;;3.85;2.78;;;;;;;6.51;100.00;99505.84;5014136;28;20396;-66
2023/11/18 08:52:57;;;;;;;4.43;2.97;;;;;;;6.55;100.00;99506.81;5013911;28;20081;-70
2023/11/18 08:55:41;;;;;;;5.07;2.72;;;;;;;6.53;100.00;99499.09;5013940;28;20088;-69
2023/11/18 08:58:21;;;;;;;1.95;1.35;;;;;;;6.32;100.00;99492.31;5013476;28;20080;-72
2023/11/18 09:03:34;;;;;;;3.28;2.17;;;;;;;6.51;100.00;99503.25;5013839;28;20488;-68
2023/11/18 09:06:25;;;;;;;3.75;2.60;;;;;;;6.56;100.00;99494.06;5013596;28;20477;-69
2023/11/18 09:09:15;;;;;;;4.05;2.85;;;;;;;6.72;100.00;99477.53;5013748;28;20092;-67
2023/11/18 09:11:41;;;;;;;2.13;1.67;;;;;;;6.67;100.00;99462.78;5010852;28;20092;-70
2023/11/18 09:14:08;;;;;;;4.10;2.45;;;;;;;6.67;100.00;99442.28;5011101;28;20482;-73
2023/11/18 09:16:39;;;;;;;3.97;2.97;;;;;;;6.86;100.00;99465.19;5011165;28;20046;-69
2023/11/18 09:19:06;;;;;;;3.78;1.85;;;;;;;6.85;100.00;99457.47;5010735;28;20121;-74
2023/11/18 09:21:35;;;;;;;3.38;2.17;;;;;;;7.05;100.00;99470.97;5010914;28;20046;-69
2023/11/18 09:24:04;;;;;;;3.72;1.60;;;;;;;7.00;100.00;99485.34;4994399;28;20041;-69
2023/11/18 09:26:30;;;;;;;;;;;;;;;7.01;100.00;99475.13;5011251;28;20033;-69
2023/11/18 09:28:57;;;;;;;3.00;2.20;;;;;;;7.09;100.00;99462.56;5010867;28;19916;-68
2023/11/18 09:31:25;;;;;;;2.53;1.27;;;;;;;7.14;100.00;99468.75;5010614;28;20759;-68
2023/11/18 09:33:52;;;;;;;2.80;1.65;;;;;;;7.12;100.00;99457.56;5010709;28;20512;-67
2023/11/18 09:36:19;;;;;;;2.58;2.13;;;;;;;7.22;100.00;99467.31;5010369;28;20646;-69
2023/11/18 09:38:49;;;;;;;2.53;1.80;;;;;;;7.18;100.00;99472.28;5010471;28;20029;-69
2023/11/18 09:41:34;;;;;;;1.75;1.30;;;;;;;7.15;100.00;99492.72;5010523;28;20037;-68
2023/11/18 09:44:02;;;;;;;2.72;2.28;;;;;;;7.09;100.00;99462.56;5030047;28;20103;-69
2023/11/18 09:46:32;;;;;;;2.33;1.33;;;;;;;7.10;100.00;99464.31;5030052;28;20057;-68
2023/11/18 09:49:25;;;;;;;4.82;2.03;;;;;;;7.12;100.00;99449.84;5030177;28;20048;-68
2023/11/18 09:51:57;;;;;;;5.32;2.60;;;;;;;6.75;100.00;99379.31;5027802;28;20034;-69
2023/11/18 09:54:23;;;;;;;9.43;3.58;;;;;;;7.23;100.00;99451.09;5029872;28;20046;-71
2023/11/18 09:57:08;;;;;;;8.07;3.13;;;;;;;7.28;100.00;99457.25;5030141;28;20029;-68
2023/11/18 09:59:44;;;;;;;2.30;1.30;;;;;;;7.23;100.00;99427.97;5029118;28;20504;-67
2023/11/18 10:02:10;;;;;;;2.13;1.38;;;;;;;7.27;100.00;99426.41;5029213;28;20412;-67
2023/11/18 10:04:41;;;;;;;2.22;1.70;;;;;;;6.70;100.00;99338.09;5029899;28;20200;-70
2023/11/18 10:07:10;;;;;;;2.08;1.50;;;;;;;7.32;100.00;99429.97;5029819;28;20471;-68
2023/11/18 10:09:39;;;;;;;3.72;1.80;;;;;;;7.35;100.00;99434.34;5029709;28;20495;-68
2023/11/18 10:12:08;;;;;;;1.73;1.48;;;;;;;7.14;100.00;99409.72;5029773;28;20037;-69
2023/11/18 10:14:41;;;;;;;2.65;1.50;;;;;;;7.57;100.00;99434.22;5010001;28;20038;-69
2023/11/18 10:17:07;;;;;;;2.97;1.70;;;;;;;7.55;100.00;99432.44;5012238;28;20026;-67
2023/11/18 10:20:12;;;;;;;1.92;1.33;;;;;;;7.47;100.00;99442.44;5026535;28;20042;-69
2023/11/18 10:22:37;;;;;;;5.80;1.73;;;;;;;7.50;100.00;99442.56;5009414;28;20033;-73
2023/11/18 10:25:05;;;;;;;3.40;1.58;;;;;;;7.53;100.00;99439.22;5012016;28;20468;-69
2023/11/18 10:27:34;;;;;;;1.73;1.13;;;;;;;7.43;100.00;99438.91;5011940;28;20492;-70
2023/11/18 10:30:18;;;;;;;10.32;2.15;;;;;;;7.44;100.00;99447.50;5011497;28;20025;-69
2023/11/18 10:32:56;;;;;;;4.32;2.47;;;;;;;6.77;100.00;99355.44;5002326;28;20477;-71
2023/11/18 10:35:24;;;;;;;2.67;1.60;;;;;;;7.26;100.00;99440.03;5003822;28;20054;-69
2023/11/18 10:37:52;;;;;;;3.97;2.00;;;;;;;7.35;100.00;99435.25;5009401;28;20480;-68
2023/11/18 10:40:17;;;;;;;2.75;1.80;;;;;;;7.33;100.00;99431.72;5010612;28;20036;-71
2023/11/18 10:42:48;;;;;;;6.40;1.95;;;;;;;7.27;100.00;99408.44;5008170;28;20121;-70
2023/11/18 10:45:24;;;;;;;4.03;1.45;;;;;;;7.16;100.00;99418.31;5011201;28;20038;-68
2023/11/18 10:47:50;;;;;;;2.03;1.15;;;;;;;7.33;100.00;99425.72;5011308;28;20080;-73
2023/11/18 10:50:19;;;;;;;2.20;1.20;;;;;;;7.36;100.00;99431.81;5009604;28;20057;-69
2023/11/18 10:52:46;;;;;;;5.37;2.50;;;;;;;7.44;100.00;99443.22;5010271;28;20036;-69
2023/11/18 10:55:11;;;;;;;6.35;2.00;;;;;;;7.44;100.00;99447.50;5010927;28;20261;-69
2023/11/18 10:57:38;;;;;;;2.13;1.45;;;;;;;6.96;100.00;99336.41;5010760;28;20476;-69
2023/11/18 11:00:13;;;;;;;5.43;2.20;;;;;;;7.39;100.00;99415.63;5010060;28;20522;-72
2023/11/18 11:02:41;;;;;;;1.80;1.17;;;;;;;7.35;100.00;99418.94;5010708;28;20053;-68
2023/11/18 11:05:15;;;;;;;5.30;2.15;;;;;;;6.79;100.00;99334.97;5010593;28;20030;-71
2023/11/18 11:07:42;;;;;;;5.38;1.65;;;;;;;7.09;100.00;99391.59;5010609;28;20074;-70
2023/11/18 11:10:10;;;;;;;5.50;2.08;;;;;;;7.31;100.00;99427.38;5010825;28;20064;-71
2023/11/18 11:12:51;;;;;;;7.53;2.55;;;;;;;7.31;100.00;99427.38;5010743;28;20091;-70
2023/11/18 11:15:25;;;;;;;8.15;1.67;;;;;;;7.33;100.00;99411.19;5009567;28;20037;-67
2023/11/18 11:17:55;;;;;;;2.58;1.55;;;;;;;7.42;100.00;99436.31;5010117;28;20030;-71
2023/11/18 11:20:31;;;;;;;;;;;;;;;7.41;100.00;99444.81;5010174;28;20034;-75
2023/11/18 11:23:27;;;;;;;4.65;1.92;;;;;;;7.43;100.00;99440.63;5010730;28;19909;-70
2023/11/18 11:26:05;;;;;;;6.80;2.20;;;;;;;7.05;100.00;99371.78;5010591;28;20033;-71
2023/11/18 11:28:43;;;;;;;6.07;2.33;;;;;;;7.21;100.00;99409.09;5010292;28;20079;-69
2023/11/18 11:31:23;;;;;;;5.15;2.22;;;;;;;7.50;100.00;99432.31;5010353;28;20034;-70
2023/11/18 11:33:51;;;;;;;9.43;2.92;;;;;;;7.45;100.00;99444.09;5010509;28;20026;-70
2023/11/18 11:36:27;;;;;;;4.35;1.58;;;;;;;7.02;100.00;99370.81;5010398;28;20058;-72
2023/11/18 11:38:55;;;;;;;8.98;3.58;;;;;;;7.43;100.00;99441.47;5010318;28;20064;-69
2023/11/18 11:41:26;;;;;;;3.72;1.40;;;;;;;7.17;100.00;99391.84;5010084;28;20484;-68